sensor_id;sensor_type;location;lat;lon;timestamp;P1;durP1;ratioP1;P2;durP2;ratioP2
82415;SDS011;72058;47.782;10.618;2024-03-22T00:00:19;25.90;;;17.30;;
82415;SDS011;72058;47.782;10.618;2024-03-22T00:02:44;27.08;;;17.83;;
82415;SDS011;72058;47.782;10.618;2024-03-22T00:05:09;24.98;;;16.40;;
82415;SDS011;72058;47.782;10.618;2024-03-22T00:07:35;25.47;;;17.80;;
82415;SDS011;72058;47.782;10.618;2024-03-22T00:10:02;22.88;;;15.70;;
82415;SDS011;72058;47.782;10.618;2024-03-22T00:12:27;21.90;;;16.38;;
82415;SDS011;72058;47.782;10.618;2024-03-22T00:14:53;22.23;;;16.40;;
82415;SDS011;72058;47.782;10.618;2024-03-22T00:17:19;24.45;;;16.15;;
82415;SDS011;72058;47.782;10.618;2024-03-22T00:19:45;21.92;;;14.73;;
82415;SDS011;72058;47.782;10.618;2024-03-22T00:22:10;21.47;;;15.40;;
82415;SDS011;72058;47.782;10.618;2024-03-22T00:24:36;20.53;;;14.90;;
82415;SDS011;72058;47.782;10.618;2024-03-22T00:27:01;21.27;;;15.77;;
82415;SDS011;72058;47.782;10.618;2024-03-22T00:29:26;19.27;;;14.80;;
82415;SDS011;72058;47.782;10.618;2024-03-22T00:31:52;24.25;;;15.98;;
82415;SDS011;72058;47.782;10.618;2024-03-22T00:34:17;24.20;;;14.13;;
82415;SDS011;72058;47.782;10.618;2024-03-22T00:36:42;19.53;;;13.80;;
82415;SDS011;72058;47.782;10.618;2024-03-22T00:39:08;20.50;;;15.38;;
82415;SDS011;72058;47.782;10.618;2024-03-22T00:41:33;19.60;;;14.77;;
82415;SDS011;72058;47.782;10.618;2024-03-22T00:43:59;19.42;;;15.35;;
82415;SDS011;72058;47.782;10.618;2024-03-22T00:46:24;20.17;;;14.15;;
82415;SDS011;72058;47.782;10.618;2024-03-22T00:48:49;19.73;;;15.35;;
82415;SDS011;72058;47.782;10.618;2024-03-22T00:51:15;21.73;;;14.15;;
82415;SDS011;72058;47.782;10.618;2024-03-22T00:53:40;20.47;;;14.23;;
82415;SDS011;72058;47.782;10.618;2024-03-22T00:56:05;18.53;;;14.13;;
82415;SDS011;72058;47.782;10.618;2024-03-22T00:58:31;21.45;;;16.25;;
82415;SDS011;72058;47.782;10.618;2024-03-22T01:00:56;20.88;;;15.60;;
82415;SDS011;72058;47.782;10.618;2024-03-22T01:03:22;19.95;;;14.38;;
82415;SDS011;72058;47.782;10.618;2024-03-22T01:05:47;18.73;;;14.40;;
82415;SDS011;72058;47.782;10.618;2024-03-22T01:08:13;23.58;;;15.15;;
82415;SDS011;72058;47.782;10.618;2024-03-22T01:10:38;20.90;;;14.30;;
82415;SDS011;72058;47.782;10.618;2024-03-22T01:13:04;20.15;;;14.52;;
82415;SDS011;72058;47.782;10.618;2024-03-22T01:15:29;22.65;;;14.32;;
82415;SDS011;72058;47.782;10.618;2024-03-22T01:17:54;20.23;;;13.47;;
82415;SDS011;72058;47.782;10.618;2024-03-22T01:20:20;20.63;;;15.05;;
82415;SDS011;72058;47.782;10.618;2024-03-22T01:22:45;20.43;;;14.40;;
82415;SDS011;72058;47.782;10.618;2024-03-22T01:25:11;21.13;;;15.20;;
82415;SDS011;72058;47.782;10.618;2024-03-22T01:27:36;20.50;;;14.40;;
82415;SDS011;72058;47.782;10.618;2024-03-22T01:30:01;21.63;;;13.90;;
82415;SDS011;72058;47.782;10.618;2024-03-22T01:32:27;20.52;;;15.27;;
82415;SDS011;72058;47.782;10.618;2024-03-22T01:34:53;22.07;;;15.53;;
82415;SDS011;72058;47.782;10.618;2024-03-22T01:37:18;20.95;;;14.00;;
82415;SDS011;72058;47.782;10.618;2024-03-22T01:39:43;19.17;;;13.70;;
82415;SDS011;72058;47.782;10.618;2024-03-22T01:42:09;19.73;;;13.30;;
82415;SDS011;72058;47.782;10.618;2024-03-22T01:44:34;20.13;;;14.53;;
82415;SDS011;72058;47.782;10.618;2024-03-22T01:46:59;18.40;;;15.10;;
82415;SDS011;72058;47.782;10.618;2024-03-22T01:49:25;18.33;;;14.57;;
82415;SDS011;72058;47.782;10.618;2024-03-22T01:51:52;19.35;;;13.90;;
82415;SDS011;72058;47.782;10.618;2024-03-22T01:54:17;19.23;;;14.35;;
82415;SDS011;72058;47.782;10.618;2024-03-22T01:56:45;19.55;;;13.52;;
82415;SDS011;72058;47.782;10.618;2024-03-22T01:59:11;19.10;;;13.32;;
82415;SDS011;72058;47.782;10.618;2024-03-22T02:01:37;20.40;;;14.75;;
82415;SDS011;72058;47.782;10.618;2024-03-22T02:04:02;19.33;;;13.75;;
82415;SDS011;72058;47.782;10.618;2024-03-22T02:06:28;20.52;;;14.02;;
82415;SDS011;72058;47.782;10.618;2024-03-22T02:08:54;20.88;;;14.27;;
82415;SDS011;72058;47.782;10.618;2024-03-22T02:11:20;21.58;;;14.10;;
82415;SDS011;72058;47.782;10.618;2024-03-22T02:13:46;20.65;;;14.38;;
82415;SDS011;72058;47.782;10.618;2024-03-22T02:16:11;20.48;;;14.45;;
82415;SDS011;72058;47.782;10.618;2024-03-22T02:18:37;20.48;;;14.30;;
82415;SDS011;72058;47.782;10.618;2024-03-22T02:21:02;18.03;;;13.70;;
82415;SDS011;72058;47.782;10.618;2024-03-22T02:23:37;19.00;;;13.98;;
82415;SDS011;72058;47.782;10.618;2024-03-22T02:26:04;20.60;;;13.10;;
82415;SDS011;72058;47.782;10.618;2024-03-22T02:28:31;19.25;;;13.68;;
82415;SDS011;72058;47.782;10.618;2024-03-22T02:31:00;17.52;;;13.25;;
82415;SDS011;72058;47.782;10.618;2024-03-22T02:33:26;18.50;;;14.30;;
82415;SDS011;72058;47.782;10.618;2024-03-22T02:35:51;18.47;;;12.73;;
82415;SDS011;72058;47.782;10.618;2024-03-22T02:38:17;19.38;;;13.20;;
82415;SDS011;72058;47.782;10.618;2024-03-22T02:40:43;19.48;;;13.52;;
82415;SDS011;72058;47.782;10.618;2024-03-22T02:43:09;19.45;;;14.65;;
82415;SDS011;72058;47.782;10.618;2024-03-22T02:45:34;22.13;;;13.95;;
82415;SDS011;72058;47.782;10.618;2024-03-22T02:48:00;21.15;;;14.32;;
82415;SDS011;72058;47.782;10.618;2024-03-22T02:50:25;20.03;;;13.20;;
82415;SDS011;72058;47.782;10.618;2024-03-22T02:52:50;20.70;;;14.30;;
82415;SDS011;72058;47.782;10.618;2024-03-22T02:55:16;23.15;;;14.82;;
82415;SDS011;72058;47.782;10.618;2024-03-22T02:57:41;18.92;;;13.32;;
82415;SDS011;72058;47.782;10.618;2024-03-22T03:00:07;21.15;;;14.52;;
82415;SDS011;72058;47.782;10.618;2024-03-22T03:02:33;20.85;;;13.63;;
82415;SDS011;72058;47.782;10.618;2024-03-22T03:04:58;17.70;;;13.30;;
82415;SDS011;72058;47.782;10.618;2024-03-22T03:07:24;20.73;;;11.77;;
82415;SDS011;72058;47.782;10.618;2024-03-22T03:09:50;18.83;;;13.30;;
82415;SDS011;72058;47.782;10.618;2024-03-22T03:12:15;18.53;;;11.67;;
82415;SDS011;72058;47.782;10.618;2024-03-22T03:14:41;18.48;;;12.75;;
82415;SDS011;72058;47.782;10.618;2024-03-22T03:17:07;19.73;;;14.05;;
82415;SDS011;72058;47.782;10.618;2024-03-22T03:19:32;21.13;;;13.32;;
82415;SDS011;72058;47.782;10.618;2024-03-22T03:21:57;20.23;;;13.77;;
82415;SDS011;72058;47.782;10.618;2024-03-22T03:24:23;19.30;;;14.60;;
82415;SDS011;72058;47.782;10.618;2024-03-22T03:26:48;24.55;;;15.50;;
82415;SDS011;72058;47.782;10.618;2024-03-22T03:29:14;22.03;;;14.23;;
82415;SDS011;72058;47.782;10.618;2024-03-22T03:31:39;24.85;;;15.52;;
82415;SDS011;72058;47.782;10.618;2024-03-22T03:34:05;22.93;;;15.03;;
82415;SDS011;72058;47.782;10.618;2024-03-22T03:36:30;20.80;;;15.03;;
82415;SDS011;72058;47.782;10.618;2024-03-22T03:38:55;18.03;;;13.17;;
82415;SDS011;72058;47.782;10.618;2024-03-22T03:41:21;18.90;;;14.80;;
82415;SDS011;72058;47.782;10.618;2024-03-22T03:43:46;21.02;;;13.38;;
82415;SDS011;72058;47.782;10.618;2024-03-22T03:46:11;18.63;;;15.07;;
82415;SDS011;72058;47.782;10.618;2024-03-22T03:48:37;19.97;;;14.60;;
82415;SDS011;72058;47.782;10.618;2024-03-22T03:51:02;20.03;;;13.53;;
82415;SDS011;72058;47.782;10.618;2024-03-22T03:53:28;19.85;;;14.32;;
82415;SDS011;72058;47.782;10.618;2024-03-22T03:55:54;18.55;;;12.77;;
82415;SDS011;72058;47.782;10.618;2024-03-22T03:58:20;23.35;;;12.95;;
82415;SDS011;72058;47.782;10.618;2024-03-22T04:00:45;16.48;;;12.32;;
82415;SDS011;72058;47.782;10.618;2024-03-22T04:03:11;17.07;;;12.87;;
82415;SDS011;72058;47.782;10.618;2024-03-22T04:05:36;15.20;;;12.33;;
82415;SDS011;72058;47.782;10.618;2024-03-22T04:08:01;17.73;;;11.23;;
82415;SDS011;72058;47.782;10.618;2024-03-22T04:10:27;21.08;;;12.88;;
82415;SDS011;72058;47.782;10.618;2024-03-22T04:12:52;15.57;;;10.93;;
82415;SDS011;72058;47.782;10.618;2024-03-22T04:15:18;12.57;;;10.57;;
82415;SDS011;72058;47.782;10.618;2024-03-22T04:17:43;17.10;;;10.03;;
82415;SDS011;72058;47.782;10.618;2024-03-22T04:20:08;16.83;;;12.00;;
82415;SDS011;72058;47.782;10.618;2024-03-22T04:22:36;14.10;;;11.68;;
82415;SDS011;72058;47.782;10.618;2024-03-22T04:25:01;16.45;;;11.35;;
82415;SDS011;72058;47.782;10.618;2024-03-22T04:27:27;14.90;;;12.13;;
82415;SDS011;72058;47.782;10.618;2024-03-22T04:29:52;16.73;;;13.40;;
82415;SDS011;72058;47.782;10.618;2024-03-22T04:32:18;16.30;;;11.63;;
82415;SDS011;72058;47.782;10.618;2024-03-22T04:34:43;14.00;;;10.60;;
82415;SDS011;72058;47.782;10.618;2024-03-22T04:37:09;16.63;;;11.45;;
82415;SDS011;72058;47.782;10.618;2024-03-22T04:39:36;14.32;;;10.98;;
82415;SDS011;72058;47.782;10.618;2024-03-22T04:42:02;13.13;;;11.10;;
82415;SDS011;72058;47.782;10.618;2024-03-22T04:44:28;13.75;;;11.20;;
82415;SDS011;72058;47.782;10.618;2024-03-22T04:46:54;14.77;;;10.57;;
82415;SDS011;72058;47.782;10.618;2024-03-22T04:49:19;14.35;;;9.68;;
82415;SDS011;72058;47.782;10.618;2024-03-22T04:51:44;14.43;;;10.60;;
82415;SDS011;72058;47.782;10.618;2024-03-22T04:54:10;10.70;;;8.60;;
82415;SDS011;72058;47.782;10.618;2024-03-22T04:56:35;11.23;;;9.93;;
82415;SDS011;72058;47.782;10.618;2024-03-22T04:59:00;10.87;;;8.90;;
82415;SDS011;72058;47.782;10.618;2024-03-22T05:01:25;11.37;;;8.93;;
82415;SDS011;72058;47.782;10.618;2024-03-22T05:03:51;10.93;;;9.83;;
82415;SDS011;72058;47.782;10.618;2024-03-22T05:06:17;12.63;;;10.18;;
82415;SDS011;72058;47.782;10.618;2024-03-22T05:08:42;11.95;;;9.27;;
82415;SDS011;72058;47.782;10.618;2024-03-22T05:11:08;10.27;;;8.95;;
82415;SDS011;72058;47.782;10.618;2024-03-22T05:13:33;11.90;;;8.50;;
82415;SDS011;72058;47.782;10.618;2024-03-22T05:15:58;10.70;;;8.67;;
82415;SDS011;72058;47.782;10.618;2024-03-22T05:18:24;11.90;;;8.83;;
82415;SDS011;72058;47.782;10.618;2024-03-22T05:20:49;8.73;;;7.93;;
82415;SDS011;72058;47.782;10.618;2024-03-22T05:23:15;12.30;;;7.57;;
82415;SDS011;72058;47.782;10.618;2024-03-22T05:25:43;10.32;;;9.30;;
82415;SDS011;72058;47.782;10.618;2024-03-22T05:28:09;9.23;;;7.68;;
82415;SDS011;72058;47.782;10.618;2024-03-22T05:30:34;10.60;;;7.93;;
82415;SDS011;72058;47.782;10.618;2024-03-22T05:32:59;9.30;;;7.80;;
82415;SDS011;72058;47.782;10.618;2024-03-22T05:35:27;11.20;;;8.17;;
82415;SDS011;72058;47.782;10.618;2024-03-22T05:37:52;10.20;;;8.85;;
82415;SDS011;72058;47.782;10.618;2024-03-22T05:40:18;12.52;;;7.82;;
82415;SDS011;72058;47.782;10.618;2024-03-22T05:42:43;9.48;;;8.40;;
82415;SDS011;72058;47.782;10.618;2024-03-22T05:45:08;12.60;;;9.52;;
82415;SDS011;72058;47.782;10.618;2024-03-22T05:47:34;15.23;;;12.15;;
82415;SDS011;72058;47.782;10.618;2024-03-22T05:49:59;11.40;;;9.30;;
82415;SDS011;72058;47.782;10.618;2024-03-22T05:52:26;16.00;;;10.43;;
82415;SDS011;72058;47.782;10.618;2024-03-22T05:54:51;13.93;;;10.53;;
82415;SDS011;72058;47.782;10.618;2024-03-22T05:57:16;13.83;;;10.23;;
82415;SDS011;72058;47.782;10.618;2024-03-22T05:59:42;16.63;;;10.18;;
82415;SDS011;72058;47.782;10.618;2024-03-22T06:02:07;20.10;;;11.23;;
82415;SDS011;72058;47.782;10.618;2024-03-22T06:04:33;17.02;;;11.82;;
82415;SDS011;72058;47.782;10.618;2024-03-22T06:06:59;14.45;;;9.88;;
82415;SDS011;72058;47.782;10.618;2024-03-22T06:09:26;11.90;;;9.98;;
82415;SDS011;72058;47.782;10.618;2024-03-22T06:12:13;14.63;;;9.57;;
82415;SDS011;72058;47.782;10.618;2024-03-22T06:14:42;13.02;;;8.55;;
82415;SDS011;72058;47.782;10.618;2024-03-22T06:17:08;12.18;;;8.93;;
82415;SDS011;72058;47.782;10.618;2024-03-22T06:19:34;9.05;;;7.93;;
82415;SDS011;72058;47.782;10.618;2024-03-22T06:22:00;9.23;;;8.32;;
82415;SDS011;72058;47.782;10.618;2024-03-22T06:24:25;10.17;;;6.87;;
82415;SDS011;72058;47.782;10.618;2024-03-22T06:26:50;8.67;;;6.63;;
82415;SDS011;72058;47.782;10.618;2024-03-22T06:29:16;11.00;;;7.53;;
82415;SDS011;72058;47.782;10.618;2024-03-22T06:31:41;13.70;;;8.55;;
82415;SDS011;72058;47.782;10.618;2024-03-22T06:34:07;8.52;;;7.57;;
82415;SDS011;72058;47.782;10.618;2024-03-22T06:36:32;9.83;;;7.77;;
82415;SDS011;72058;47.782;10.618;2024-03-22T06:38:58;9.63;;;8.40;;
82415;SDS011;72058;47.782;10.618;2024-03-22T06:41:24;8.35;;;7.55;;
82415;SDS011;72058;47.782;10.618;2024-03-22T06:43:50;9.93;;;7.63;;
82415;SDS011;72058;47.782;10.618;2024-03-22T06:46:16;11.18;;;7.63;;
82415;SDS011;72058;47.782;10.618;2024-03-22T06:48:41;8.23;;;7.43;;
82415;SDS011;72058;47.782;10.618;2024-03-22T06:51:06;8.67;;;7.47;;
82415;SDS011;72058;47.782;10.618;2024-03-22T06:53:32;10.80;;;7.23;;
82415;SDS011;72058;47.782;10.618;2024-03-22T06:55:57;10.10;;;7.03;;
82415;SDS011;72058;47.782;10.618;2024-03-22T06:58:25;14.55;;;9.75;;
82415;SDS011;72058;47.782;10.618;2024-03-22T07:00:51;9.83;;;8.30;;
82415;SDS011;72058;47.782;10.618;2024-03-22T07:03:16;8.65;;;7.07;;
82415;SDS011;72058;47.782;10.618;2024-03-22T07:05:42;7.38;;;6.25;;
82415;SDS011;72058;47.782;10.618;2024-03-22T07:08:08;7.18;;;6.07;;
82415;SDS011;72058;47.782;10.618;2024-03-22T07:10:33;7.45;;;6.05;;
82415;SDS011;72058;47.782;10.618;2024-03-22T07:12:58;6.95;;;5.72;;
82415;SDS011;72058;47.782;10.618;2024-03-22T07:15:24;7.33;;;6.13;;
82415;SDS011;72058;47.782;10.618;2024-03-22T07:17:49;12.00;;;6.43;;
82415;SDS011;72058;47.782;10.618;2024-03-22T07:20:15;6.88;;;5.57;;
82415;SDS011;72058;47.782;10.618;2024-03-22T07:22:41;8.00;;;7.20;;
82415;SDS011;72058;47.782;10.618;2024-03-22T07:25:06;7.47;;;6.22;;
82415;SDS011;72058;47.782;10.618;2024-03-22T07:27:34;7.03;;;6.32;;
82415;SDS011;72058;47.782;10.618;2024-03-22T07:29:59;6.70;;;5.57;;
82415;SDS011;72058;47.782;10.618;2024-03-22T07:32:25;6.47;;;5.63;;
82415;SDS011;72058;47.782;10.618;2024-03-22T07:34:50;7.80;;;7.00;;
82415;SDS011;72058;47.782;10.618;2024-03-22T07:37:16;8.25;;;5.45;;
82415;SDS011;72058;47.782;10.618;2024-03-22T07:39:41;7.40;;;4.80;;
82415;SDS011;72058;47.782;10.618;2024-03-22T07:42:06;5.57;;;5.03;;
82415;SDS011;72058;47.782;10.618;2024-03-22T07:44:32;6.40;;;5.53;;
82415;SDS011;72058;47.782;10.618;2024-03-22T07:46:57;6.10;;;5.57;;
82415;SDS011;72058;47.782;10.618;2024-03-22T07:49:22;4.83;;;4.03;;
82415;SDS011;72058;47.782;10.618;2024-03-22T07:51:48;5.57;;;4.47;;
82415;SDS011;72058;47.782;10.618;2024-03-22T07:54:13;4.47;;;4.00;;
82415;SDS011;72058;47.782;10.618;2024-03-22T07:56:38;5.73;;;5.20;;
82415;SDS011;72058;47.782;10.618;2024-03-22T07:59:04;5.00;;;4.50;;
82415;SDS011;72058;47.782;10.618;2024-03-22T08:01:29;4.50;;;4.05;;
82415;SDS011;72058;47.782;10.618;2024-03-22T08:03:55;4.75;;;4.35;;
82415;SDS011;72058;47.782;10.618;2024-03-22T08:06:20;5.20;;;4.67;;
82415;SDS011;72058;47.782;10.618;2024-03-22T08:08:46;4.88;;;4.20;;
82415;SDS011;72058;47.782;10.618;2024-03-22T08:11:12;7.68;;;4.40;;
82415;SDS011;72058;47.782;10.618;2024-03-22T08:13:37;6.80;;;4.43;;
82415;SDS011;72058;47.782;10.618;2024-03-22T08:16:03;15.00;;;5.30;;
82415;SDS011;72058;47.782;10.618;2024-03-22T08:18:29;7.93;;;4.22;;
82415;SDS011;72058;47.782;10.618;2024-03-22T08:20:54;4.40;;;3.73;;
82415;SDS011;72058;47.782;10.618;2024-03-22T08:23:19;4.77;;;3.70;;
82415;SDS011;72058;47.782;10.618;2024-03-22T08:25:45;5.32;;;3.50;;
82415;SDS011;72058;47.782;10.618;2024-03-22T08:28:11;5.80;;;4.13;;
82415;SDS011;72058;47.782;10.618;2024-03-22T08:30:38;4.93;;;4.03;;
82415;SDS011;72058;47.782;10.618;2024-03-22T08:33:04;5.93;;;4.55;;
82415;SDS011;72058;47.782;10.618;2024-03-22T08:35:29;4.63;;;3.85;;
82415;SDS011;72058;47.782;10.618;2024-03-22T08:37:55;4.47;;;4.03;;
82415;SDS011;72058;47.782;10.618;2024-03-22T08:40:21;5.40;;;4.68;;
82415;SDS011;72058;47.782;10.618;2024-03-22T08:42:46;4.30;;;3.73;;
82415;SDS011;72058;47.782;10.618;2024-03-22T08:45:11;4.33;;;3.93;;
82415;SDS011;72058;47.782;10.618;2024-03-22T08:47:37;3.47;;;3.17;;
82415;SDS011;72058;47.782;10.618;2024-03-22T08:52:29;5.30;;;3.88;;
82415;SDS011;72058;47.782;10.618;2024-03-22T08:54:56;6.20;;;3.55;;
82415;SDS011;72058;47.782;10.618;2024-03-22T08:57:22;3.53;;;3.17;;
82415;SDS011;72058;47.782;10.618;2024-03-22T08:59:47;4.50;;;4.07;;
82415;SDS011;72058;47.782;10.618;2024-03-22T09:02:12;4.03;;;3.73;;
82415;SDS011;72058;47.782;10.618;2024-03-22T09:04:38;4.07;;;3.67;;
82415;SDS011;72058;47.782;10.618;2024-03-22T09:07:04;5.18;;;4.47;;
82415;SDS011;72058;47.782;10.618;2024-03-22T09:09:29;5.03;;;4.32;;
82415;SDS011;72058;47.782;10.618;2024-03-22T09:11:55;4.73;;;3.90;;
82415;SDS011;72058;47.782;10.618;2024-03-22T09:14:20;3.97;;;3.63;;
82415;SDS011;72058;47.782;10.618;2024-03-22T09:16:45;4.90;;;3.50;;
82415;SDS011;72058;47.782;10.618;2024-03-22T09:19:11;4.90;;;3.05;;
82415;SDS011;72058;47.782;10.618;2024-03-22T09:21:36;3.85;;;3.20;;
82415;SDS011;72058;47.782;10.618;2024-03-22T09:24:01;4.70;;;3.17;;
82415;SDS011;72058;47.782;10.618;2024-03-22T09:26:31;5.75;;;3.60;;
82415;SDS011;72058;47.782;10.618;2024-03-22T09:29:00;5.80;;;3.47;;
82415;SDS011;72058;47.782;10.618;2024-03-22T09:31:25;4.95;;;3.70;;
82415;SDS011;72058;47.782;10.618;2024-03-22T09:33:51;3.90;;;3.30;;
82415;SDS011;72058;47.782;10.618;2024-03-22T09:36:16;4.30;;;3.90;;
82415;SDS011;72058;47.782;10.618;2024-03-22T09:38:41;8.23;;;5.80;;
82415;SDS011;72058;47.782;10.618;2024-03-22T09:41:07;4.53;;;3.63;;
82415;SDS011;72058;47.782;10.618;2024-03-22T09:43:32;4.47;;;3.53;;
82415;SDS011;72058;47.782;10.618;2024-03-22T09:45:59;3.35;;;3.05;;
82415;SDS011;72058;47.782;10.618;2024-03-22T09:48:25;3.67;;;3.13;;
82415;SDS011;72058;47.782;10.618;2024-03-22T09:50:51;5.68;;;3.40;;
82415;SDS011;72058;47.782;10.618;2024-03-22T09:53:18;3.50;;;3.20;;
82415;SDS011;72058;47.782;10.618;2024-03-22T09:55:46;4.85;;;3.30;;
82415;SDS011;72058;47.782;10.618;2024-03-22T09:58:12;3.78;;;3.28;;
82415;SDS011;72058;47.782;10.618;2024-03-22T10:00:38;3.20;;;2.90;;
82415;SDS011;72058;47.782;10.618;2024-03-22T10:03:03;3.72;;;3.33;;
82415;SDS011;72058;47.782;10.618;2024-03-22T10:07:55;4.72;;;3.65;;
82415;SDS011;72058;47.782;10.618;2024-03-22T10:10:21;3.83;;;3.08;;
82415;SDS011;72058;47.782;10.618;2024-03-22T10:12:46;3.45;;;3.08;;
82415;SDS011;72058;47.782;10.618;2024-03-22T10:15:12;4.45;;;3.70;;
82415;SDS011;72058;47.782;10.618;2024-03-22T10:17:38;4.00;;;3.13;;
82415;SDS011;72058;47.782;10.618;2024-03-22T10:20:05;3.90;;;3.03;;
82415;SDS011;72058;47.782;10.618;2024-03-22T10:25:04;4.90;;;4.13;;
82415;SDS011;72058;47.782;10.618;2024-03-22T10:27:31;6.00;;;3.55;;
82415;SDS011;72058;47.782;10.618;2024-03-22T10:29:57;3.67;;;3.25;;
82415;SDS011;72058;47.782;10.618;2024-03-22T10:32:23;3.33;;;2.90;;
82415;SDS011;72058;47.782;10.618;2024-03-22T10:34:52;3.65;;;3.00;;
82415;SDS011;72058;47.782;10.618;2024-03-22T10:37:18;4.75;;;3.80;;
82415;SDS011;72058;47.782;10.618;2024-03-22T10:39:43;4.45;;;2.97;;
82415;SDS011;72058;47.782;10.618;2024-03-22T10:42:11;3.20;;;2.90;;
82415;SDS011;72058;47.782;10.618;2024-03-22T10:44:37;3.90;;;2.65;;
82415;SDS011;72058;47.782;10.618;2024-03-22T10:47:03;4.68;;;3.17;;
82415;SDS011;72058;47.782;10.618;2024-03-22T10:51:57;4.90;;;3.10;;
82415;SDS011;72058;47.782;10.618;2024-03-22T10:54:26;4.03;;;2.95;;
82415;SDS011;72058;47.782;10.618;2024-03-22T10:57:00;4.55;;;3.30;;
82415;SDS011;72058;47.782;10.618;2024-03-22T11:01:51;4.20;;;3.33;;
82415;SDS011;72058;47.782;10.618;2024-03-22T11:04:17;4.45;;;3.08;;
82415;SDS011;72058;47.782;10.618;2024-03-22T11:06:48;3.08;;;2.70;;
82415;SDS011;72058;47.782;10.618;2024-03-22T11:09:21;4.30;;;3.05;;
82415;SDS011;72058;47.782;10.618;2024-03-22T11:11:47;4.90;;;2.90;;
82415;SDS011;72058;47.782;10.618;2024-03-22T11:14:13;3.53;;;2.83;;
82415;SDS011;72058;47.782;10.618;2024-03-22T11:16:38;3.93;;;2.80;;
82415;SDS011;72058;47.782;10.618;2024-03-22T11:19:08;3.30;;;2.70;;
82415;SDS011;72058;47.782;10.618;2024-03-22T11:21:34;4.00;;;2.92;;
82415;SDS011;72058;47.782;10.618;2024-03-22T11:24:02;5.13;;;3.05;;
82415;SDS011;72058;47.782;10.618;2024-03-22T11:26:27;3.70;;;3.15;;
82415;SDS011;72058;47.782;10.618;2024-03-22T11:28:52;3.97;;;3.57;;
82415;SDS011;72058;47.782;10.618;2024-03-22T11:31:18;6.63;;;4.87;;
82415;SDS011;72058;47.782;10.618;2024-03-22T11:33:46;5.20;;;3.72;;
82415;SDS011;72058;47.782;10.618;2024-03-22T11:36:12;4.05;;;3.58;;
82415;SDS011;72058;47.782;10.618;2024-03-22T11:38:38;4.50;;;3.20;;
82415;SDS011;72058;47.782;10.618;2024-03-22T11:41:04;3.97;;;2.80;;
82415;SDS011;72058;47.782;10.618;2024-03-22T11:43:31;4.03;;;3.15;;
82415;SDS011;72058;47.782;10.618;2024-03-22T11:45:57;4.03;;;3.45;;
82415;SDS011;72058;47.782;10.618;2024-03-22T11:48:23;3.80;;;3.22;;
82415;SDS011;72058;47.782;10.618;2024-03-22T11:50:49;3.85;;;3.30;;
82415;SDS011;72058;47.782;10.618;2024-03-22T11:53:15;4.30;;;3.90;;
82415;SDS011;72058;47.782;10.618;2024-03-22T11:55:42;4.90;;;3.47;;
82415;SDS011;72058;47.782;10.618;2024-03-22T11:58:08;3.40;;;3.10;;
82415;SDS011;72058;47.782;10.618;2024-03-22T12:00:35;4.15;;;3.67;;
82415;SDS011;72058;47.782;10.618;2024-03-22T12:03:00;3.60;;;2.88;;
82415;SDS011;72058;47.782;10.618;2024-03-22T12:05:30;3.45;;;2.92;;
82415;SDS011;72058;47.782;10.618;2024-03-22T12:07:56;3.50;;;3.20;;
82415;SDS011;72058;47.782;10.618;2024-03-22T12:10:21;3.60;;;3.10;;
82415;SDS011;72058;47.782;10.618;2024-03-22T12:12:46;4.70;;;3.33;;
82415;SDS011;72058;47.782;10.618;2024-03-22T12:15:12;3.60;;;2.97;;
82415;SDS011;72058;47.782;10.618;2024-03-22T12:17:37;4.23;;;3.17;;
82415;SDS011;72058;47.782;10.618;2024-03-22T12:20:05;3.45;;;3.15;;
82415;SDS011;72058;47.782;10.618;2024-03-22T12:22:33;3.72;;;3.33;;
82415;SDS011;72058;47.782;10.618;2024-03-22T12:24:59;3.67;;;2.53;;
82415;SDS011;72058;47.782;10.618;2024-03-22T12:27:24;3.15;;;2.50;;
82415;SDS011;72058;47.782;10.618;2024-03-22T12:29:49;3.45;;;2.80;;
82415;SDS011;72058;47.782;10.618;2024-03-22T12:32:15;4.43;;;3.60;;
82415;SDS011;72058;47.782;10.618;2024-03-22T12:34:40;3.05;;;2.83;;
82415;SDS011;72058;47.782;10.618;2024-03-22T12:37:06;3.70;;;3.40;;
82415;SDS011;72058;47.782;10.618;2024-03-22T12:39:32;5.68;;;3.50;;
82415;SDS011;72058;47.782;10.618;2024-03-22T12:41:57;5.00;;;3.45;;
82415;SDS011;72058;47.782;10.618;2024-03-22T12:44:23;3.67;;;3.15;;
82415;SDS011;72058;47.782;10.618;2024-03-22T12:46:48;3.70;;;2.75;;
82415;SDS011;72058;47.782;10.618;2024-03-22T12:49:16;3.38;;;2.88;;
82415;SDS011;72058;47.782;10.618;2024-03-22T12:51:42;4.35;;;3.45;;
82415;SDS011;72058;47.782;10.618;2024-03-22T12:54:07;3.17;;;2.88;;
82415;SDS011;72058;47.782;10.618;2024-03-22T12:59:04;4.78;;;2.90;;
82415;SDS011;72058;47.782;10.618;2024-03-22T13:01:29;4.35;;;3.58;;
82415;SDS011;72058;47.782;10.618;2024-03-22T13:03:55;3.88;;;3.22;;
82415;SDS011;72058;47.782;10.618;2024-03-22T13:06:21;3.30;;;2.70;;
82415;SDS011;72058;47.782;10.618;2024-03-22T13:08:47;4.38;;;3.97;;
82415;SDS011;72058;47.782;10.618;2024-03-22T13:11:12;3.50;;;3.20;;
82415;SDS011;72058;47.782;10.618;2024-03-22T13:16:04;5.40;;;2.97;;
82415;SDS011;72058;47.782;10.618;2024-03-22T13:18:31;4.70;;;3.35;;
82415;SDS011;72058;47.782;10.618;2024-03-22T13:20:57;4.07;;;3.40;;
82415;SDS011;72058;47.782;10.618;2024-03-22T13:23:22;3.92;;;2.90;;
82415;SDS011;72058;47.782;10.618;2024-03-22T13:25:48;5.40;;;3.10;;
82415;SDS011;72058;47.782;10.618;2024-03-22T13:28:13;4.85;;;3.55;;
82415;SDS011;72058;47.782;10.618;2024-03-22T13:30:38;3.85;;;3.35;;
82415;SDS011;72058;47.782;10.618;2024-03-22T13:33:05;3.97;;;3.00;;
82415;SDS011;72058;47.782;10.618;2024-03-22T13:35:30;4.28;;;3.35;;
82415;SDS011;72058;47.782;10.618;2024-03-22T13:37:56;4.03;;;3.10;;
82415;SDS011;72058;47.782;10.618;2024-03-22T13:40:21;3.90;;;3.13;;
82415;SDS011;72058;47.782;10.618;2024-03-22T13:42:46;3.03;;;2.67;;
82415;SDS011;72058;47.782;10.618;2024-03-22T13:45:12;4.40;;;2.87;;
82415;SDS011;72058;47.782;10.618;2024-03-22T13:47:37;3.53;;;2.75;;
82415;SDS011;72058;47.782;10.618;2024-03-22T13:50:05;4.32;;;3.45;;
82415;SDS011;72058;47.782;10.618;2024-03-22T13:52:33;3.47;;;3.17;;
82415;SDS011;72058;47.782;10.618;2024-03-22T13:54:58;2.97;;;2.70;;
82415;SDS011;72058;47.782;10.618;2024-03-22T13:57:24;3.20;;;2.63;;
82415;SDS011;72058;47.782;10.618;2024-03-22T13:59:51;3.00;;;2.70;;
82415;SDS011;72058;47.782;10.618;2024-03-22T14:02:16;3.35;;;2.90;;
82415;SDS011;72058;47.782;10.618;2024-03-22T14:04:41;5.30;;;3.53;;
82415;SDS011;72058;47.782;10.618;2024-03-22T14:07:07;4.57;;;2.63;;
82415;SDS011;72058;47.782;10.618;2024-03-22T14:09:32;3.22;;;2.92;;
82415;SDS011;72058;47.782;10.618;2024-03-22T14:11:58;3.15;;;2.80;;
82415;SDS011;72058;47.782;10.618;2024-03-22T14:14:24;3.42;;;3.13;;
82415;SDS011;72058;47.782;10.618;2024-03-22T14:16:51;3.13;;;2.50;;
82415;SDS011;72058;47.782;10.618;2024-03-22T14:21:44;3.45;;;2.88;;
82415;SDS011;72058;47.782;10.618;2024-03-22T14:24:09;3.35;;;2.67;;
82415;SDS011;72058;47.782;10.618;2024-03-22T14:26:35;4.97;;;3.37;;
82415;SDS011;72058;47.782;10.618;2024-03-22T14:29:07;3.38;;;2.55;;
82415;SDS011;72058;47.782;10.618;2024-03-22T14:31:32;3.08;;;2.53;;
82415;SDS011;72058;47.782;10.618;2024-03-22T14:33:57;5.60;;;4.50;;